createdAt,value
2019-05-03T00:02:26.857Z,10.94
2019-05-03T00:05:12.498Z,10.93
2019-05-03T00:07:44.550Z,10.95
2019-05-03T00:10:17.157Z,10.83
2019-05-03T00:12:48.938Z,10.93
2019-05-03T00:15:45.500Z,10.97
2019-05-03T00:18:17.537Z,11.03
2019-05-03T00:20:49.289Z,11.12
2019-05-03T00:23:22.825Z,11.02
2019-05-03T00:25:54.374Z,11.03
2019-05-03T00:28:26.182Z,11.01
2019-05-03T00:30:57.604Z,11.08
2019-05-03T00:33:31.730Z,11.03
2019-05-03T00:36:32.671Z,11.04
2019-05-03T00:39:21.702Z,11.10
2019-05-03T00:41:53.375Z,11.01
2019-05-03T00:44:24.690Z,11.05
2019-05-03T00:46:57.311Z,11.05
2019-05-03T00:49:28.714Z,10.96
2019-05-03T00:52:02.209Z,11.05
2019-05-03T00:54:33.703Z,11.05
2019-05-03T00:57:05.131Z,10.92
2019-05-03T00:59:36.340Z,10.93
2019-05-03T01:02:07.713Z,10.79
2019-05-03T01:04:39.152Z,10.77
2019-05-03T01:07:11.759Z,10.88
2019-05-03T01:09:43.630Z,10.95
2019-05-03T01:12:15.420Z,10.97
2019-05-03T01:14:51.544Z,10.92
2019-05-03T01:17:23.273Z,10.74
2019-05-03T01:19:54.886Z,10.88
2019-05-03T01:22:26.343Z,10.73
2019-05-03T01:24:58.065Z,10.77
2019-05-03T01:27:29.362Z,10.68
2019-05-03T01:30:02.981Z,10.77
2019-05-03T01:32:35.793Z,10.70
2019-05-03T01:35:08.483Z,10.70
2019-05-03T01:37:40.100Z,10.66
2019-05-03T01:40:12.519Z,10.67
2019-05-03T01:42:44.003Z,10.68
2019-05-03T01:45:16.040Z,10.74
2019-05-03T01:47:56.998Z,10.72
2019-05-03T01:50:39.672Z,10.62
2019-05-03T01:53:13.937Z,10.57
2019-05-03T01:55:52.345Z,10.50
2019-05-03T01:58:24.532Z,10.49
2019-05-03T02:01:06.293Z,10.43
2019-05-03T02:03:44.303Z,10.49
2019-05-03T02:06:15.715Z,10.45
2019-05-03T02:08:47.176Z,10.41
2019-05-03T02:11:18.912Z,10.32
2019-05-03T02:13:52.139Z,10.26
2019-05-03T02:16:23.816Z,10.24
2019-05-03T02:18:55.540Z,10.18
2019-05-03T02:21:26.842Z,10.23
2019-05-03T02:23:58.052Z,10.11
2019-05-03T02:26:29.519Z,10.18
2019-05-03T02:29:01.858Z,10.15
2019-05-03T02:31:33.260Z,10.15
2019-05-03T02:34:04.624Z,10.09
2019-05-03T02:36:36.315Z,10.19
2019-05-03T02:39:13.520Z,10.16
2019-05-03T02:41:47.969Z,10.01
2019-05-03T02:44:21.216Z,10.07
2019-05-03T02:47:17.670Z,9.98
2019-05-03T02:49:55.995Z,9.97
2019-05-03T02:52:37.572Z,9.96
2019-05-03T02:55:11.734Z,9.92
2019-05-03T02:57:46.229Z,9.93
2019-05-03T03:00:17.804Z,9.90
2019-05-03T03:02:49.346Z,9.87
2019-05-03T03:05:21.711Z,9.89
2019-05-03T03:07:55.908Z,9.78
2019-05-03T03:10:28.920Z,9.72
2019-05-03T03:13:05.904Z,9.76
2019-05-03T03:15:41.325Z,9.72
2019-05-03T03:18:15.783Z,9.71
2019-05-03T03:20:50.421Z,9.68
2019-05-03T03:23:26.565Z,9.67
2019-05-03T03:26:00.693Z,9.72
2019-05-03T03:28:36.747Z,9.63
2019-05-03T03:32:10.295Z,9.58
2019-05-03T03:35:11.068Z,9.53
2019-05-03T03:37:39.332Z,9.48
2019-05-03T03:40:11.315Z,9.47
2019-05-03T03:42:44.964Z,9.53
2019-05-03T03:45:16.836Z,9.46
2019-05-03T03:47:56.230Z,9.48
2019-05-03T03:50:29.876Z,9.52
2019-05-03T03:53:06.741Z,9.61
2019-05-03T03:55:45.664Z,9.61
2019-05-03T03:58:22.391Z,9.52
2019-05-03T04:00:50.577Z,9.57
2019-05-03T04:03:25.698Z,9.58
2019-05-03T04:05:56.675Z,9.54
2019-05-03T04:08:29.258Z,9.46
2019-05-03T04:11:01.598Z,9.45
2019-05-03T04:13:36.121Z,9.39
2019-05-03T04:16:20.727Z,9.50
2019-05-03T04:19:12.117Z,9.56
2019-05-03T04:21:45.308Z,9.44
2019-05-03T04:24:17.490Z,9.34
2019-05-03T04:26:52.859Z,9.46
2019-05-03T04:29:25.383Z,9.48
2019-05-03T04:31:57.329Z,9.44
2019-05-03T04:34:28.608Z,9.38
2019-05-03T04:37:00.402Z,9.32
2019-05-03T04:39:32.089Z,9.43
2019-05-03T04:42:06.338Z,9.31
2019-05-03T04:44:36.853Z,9.27
2019-05-03T04:47:08.352Z,9.33
2019-05-03T04:49:39.661Z,9.33
2019-05-03T04:52:11.304Z,9.37
2019-05-03T04:55:01.473Z,9.37
2019-05-03T04:57:40.505Z,9.36
2019-05-03T05:00:11.320Z,9.30
2019-05-03T05:02:42.067Z,9.24
2019-05-03T05:05:15.446Z,9.38
2019-05-03T05:07:47.036Z,9.44
2019-05-03T05:10:18.484Z,9.40
2019-05-03T05:12:49.799Z,9.34
2019-05-03T05:15:21.590Z,9.30
2019-05-03T05:18:21.052Z,9.34
2019-05-03T05:21:09.361Z,9.38
2019-05-03T05:23:58.364Z,9.53
2019-05-03T05:26:55.190Z,9.51
2019-05-03T05:29:28.972Z,9.41
2019-05-03T05:32:01.009Z,9.57
2019-05-03T05:34:34.901Z,9.79
2019-05-03T05:37:06.545Z,9.86
2019-05-03T05:39:38.019Z,10.02
2019-05-03T05:42:09.467Z,10.11
2019-05-03T05:44:40.866Z,9.99
2019-05-03T05:47:26.060Z,9.87
2019-05-03T05:50:01.464Z,10.01
2019-05-03T05:52:34.616Z,10.04
2019-05-03T05:55:26.246Z,9.99
2019-05-03T05:58:10.099Z,10.02
2019-05-03T06:01:00.208Z,9.95
2019-05-03T06:03:31.602Z,10.00
2019-05-03T06:06:05.817Z,9.98
2019-05-03T06:08:40.748Z,9.99
2019-05-03T06:11:37.046Z,10.07
2019-05-03T06:14:15.745Z,10.01
2019-05-03T06:17:01.625Z,10.30
2019-05-03T06:19:45.921Z,10.00
2019-05-03T06:22:31.135Z,10.03
2019-05-03T06:25:12.783Z,10.15
2019-05-03T06:27:44.969Z,10.35
2019-05-03T06:30:24.895Z,10.55
2019-05-03T06:32:56.518Z,10.60
2019-05-03T06:35:28.176Z,10.46
2019-05-03T06:37:59.866Z,10.25
2019-05-03T06:40:31.298Z,10.26
2019-05-03T06:43:09.210Z,10.21
2019-05-03T06:45:35.899Z,10.23
2019-05-03T06:48:07.328Z,10.31
2019-05-03T06:50:38.705Z,10.25
2019-05-03T06:53:12.864Z,10.53
2019-05-03T06:55:45.526Z,10.61
2019-05-03T06:58:30.553Z,10.68
2019-05-03T07:01:21.009Z,10.61
2019-05-03T07:04:26.563Z,10.57
2019-05-03T07:07:16.770Z,10.58
2019-05-03T07:09:54.576Z,10.54
2019-05-03T07:12:26.162Z,10.55
2019-05-03T07:14:57.805Z,10.61
2019-05-03T07:17:29.110Z,10.56
2019-05-03T07:20:00.485Z,10.58
2019-05-03T07:22:32.501Z,10.71
2019-05-03T07:25:04.671Z,10.89
2019-05-03T07:27:36.150Z,11.05
2019-05-03T07:30:07.626Z,11.11
2019-05-03T07:32:41.089Z,11.22
2019-05-03T07:35:14.776Z,11.24
2019-05-03T07:37:46.496Z,11.39
2019-05-03T07:40:18.343Z,11.40
2019-05-03T07:42:49.745Z,11.47
2019-05-03T07:45:21.465Z,11.61
2019-05-03T07:47:55.841Z,11.70
2019-05-03T07:50:27.521Z,11.68
2019-05-03T07:52:58.875Z,11.73
2019-05-03T07:55:47.984Z,11.66
2019-05-03T07:58:21.756Z,11.55
2019-05-03T08:01:05.804Z,11.53
2019-05-03T08:03:28.742Z,11.60
2019-05-03T08:06:00.581Z,11.53
2019-05-03T08:08:32.406Z,11.62
2019-05-03T08:11:05.329Z,11.60
2019-05-03T08:13:36.887Z,11.65
2019-05-03T08:16:08.375Z,11.63
2019-05-03T08:18:40.433Z,11.66
2019-05-03T08:21:11.895Z,11.73
2019-05-03T08:23:45.165Z,11.76
2019-05-03T08:26:16.299Z,11.96
2019-05-03T08:28:47.810Z,12.06
2019-05-03T08:31:38.077Z,12.07
2019-05-03T08:34:19.304Z,12.11
2019-05-03T08:37:15.975Z,12.26
2019-05-03T08:39:47.716Z,12.59
2019-05-03T08:42:25.392Z,12.91
2019-05-03T08:44:57.727Z,13.38
2019-05-03T08:47:29.237Z,13.49
2019-05-03T08:50:00.784Z,13.56
2019-05-03T08:52:32.115Z,14.00
2019-05-03T08:55:05.214Z,14.09
2019-05-03T08:57:37.173Z,13.86
2019-05-03T09:00:14.496Z,14.19
2019-05-03T09:02:45.985Z,14.33
2019-05-03T09:05:18.608Z,14.27
2019-05-03T09:07:50.893Z,14.26
2019-05-03T09:10:30.272Z,13.84
2019-05-03T09:13:06.840Z,13.44
2019-05-03T09:15:38.884Z,12.81
2019-05-03T09:18:10.611Z,12.30
2019-05-03T09:20:42.068Z,11.86
2019-05-03T09:23:14.876Z,11.63
2019-05-03T09:25:46.838Z,11.39
2019-05-03T09:28:18.156Z,11.25
2019-05-03T09:30:49.490Z,11.22
2019-05-03T09:33:21.258Z,11.24
2019-05-03T09:35:54.957Z,11.26
2019-05-03T09:38:26.805Z,11.21
2019-05-03T09:40:58.180Z,11.47
2019-05-03T09:43:29.796Z,11.76
2019-05-03T09:46:01.210Z,11.91
2019-05-03T09:48:34.718Z,12.02
2019-05-03T09:51:06.033Z,12.14
2019-05-03T09:53:45.435Z,12.46
2019-05-03T09:56:18.573Z,12.65
2019-05-03T09:58:49.957Z,12.90
2019-05-03T10:01:21.312Z,12.98
2019-05-03T10:03:54.791Z,13.08
2019-05-03T10:06:25.955Z,12.99
2019-05-03T10:08:57.194Z,12.99
2019-05-03T10:11:28.505Z,13.11
2019-05-03T10:14:00.218Z,13.91
2019-05-03T10:16:36.462Z,13.96
2019-05-03T10:19:08.316Z,14.16
2019-05-03T10:21:42.465Z,14.82
2019-05-03T10:24:15.225Z,15.20
2019-05-03T10:26:48.433Z,15.10
2019-05-03T10:29:20.066Z,13.69
2019-05-03T10:31:59.719Z,13.80
2019-05-03T10:34:31.364Z,13.53
2019-05-03T10:37:05.185Z,13.63
2019-05-03T10:39:37.987Z,13.69
2019-05-03T10:42:09.454Z,13.49
2019-05-03T10:44:40.782Z,13.15
2019-05-03T10:47:12.105Z,12.98
2019-05-03T10:49:45.768Z,13.09
2019-05-03T10:52:19.183Z,13.22
2019-05-03T10:54:51.030Z,13.47
2019-05-03T10:57:37.794Z,13.18
2019-05-03T11:00:39.309Z,12.83
2019-05-03T11:02:50.134Z,13.02
2019-05-03T11:05:21.744Z,13.06
2019-05-03T11:07:55.640Z,13.27
2019-05-03T11:10:27.499Z,13.48
2019-05-03T11:12:59.074Z,13.75
2019-05-03T11:15:30.631Z,14.08
2019-05-03T11:18:02.073Z,14.12
2019-05-03T11:20:37.558Z,14.51
2019-05-03T11:23:09.696Z,14.65
2019-05-03T11:25:41.074Z,14.73
2019-05-03T11:28:19.194Z,15.15
2019-05-03T11:30:56.495Z,15.20
2019-05-03T11:33:39.864Z,15.65
2019-05-03T11:36:27.628Z,14.81
2019-05-03T11:38:59.161Z,14.51
2019-05-03T11:41:32.938Z,14.68
2019-05-03T11:44:24.495Z,14.60
2019-05-03T11:46:55.831Z,14.39
2019-05-03T11:49:28.067Z,14.92
2019-05-03T11:51:59.529Z,14.98
2019-05-03T11:54:30.941Z,14.83
2019-05-03T11:57:05.257Z,14.17
2019-05-03T11:59:36.986Z,14.03
2019-05-03T12:02:19.726Z,14.16
2019-05-03T12:04:51.020Z,14.37
2019-05-03T12:07:39.494Z,14.44
2019-05-03T12:10:17.609Z,14.36
2019-05-03T12:12:44.541Z,14.41
2019-05-03T12:15:17.169Z,15.30
2019-05-03T12:17:55.306Z,15.20
2019-05-03T12:20:28.644Z,14.77
2019-05-03T12:23:00.288Z,14.61
2019-05-03T12:25:32.700Z,14.86
2019-05-03T12:28:06.248Z,15.62
2019-05-03T12:30:37.635Z,15.83
2019-05-03T12:33:10.255Z,16.90
2019-05-03T12:35:41.678Z,17.07
2019-05-03T12:38:16.279Z,17.19
2019-05-03T12:40:47.120Z,16.11
2019-05-03T12:43:18.485Z,15.91
2019-05-03T12:45:49.850Z,15.49
2019-05-03T12:48:21.680Z,15.19
2019-05-03T12:50:54.577Z,14.84
2019-05-03T12:53:26.101Z,14.20
2019-05-03T12:55:57.818Z,14.29
2019-05-03T12:59:06.481Z,14.79
2019-05-03T13:01:48.462Z,14.88
2019-05-03T13:04:24.699Z,14.86
2019-05-03T13:07:03.146Z,14.55
2019-05-03T13:09:35.753Z,14.81
2019-05-03T13:12:09.667Z,15.24
2019-05-03T13:14:40.923Z,15.10
2019-05-03T13:17:12.467Z,15.07
2019-05-03T13:19:45.222Z,14.74
2019-05-03T13:22:16.695Z,14.57
2019-05-03T13:24:47.915Z,14.69
2019-05-03T13:27:19.209Z,14.71
2019-05-03T13:29:50.655Z,14.64
2019-05-03T13:32:22.022Z,14.91
2019-05-03T13:34:55.290Z,15.01
2019-05-03T13:37:27.011Z,15.28
2019-05-03T13:39:58.297Z,15.06
2019-05-03T13:42:29.737Z,15.00
2019-05-03T13:45:01.631Z,14.92
2019-05-03T13:47:35.047Z,14.57
2019-05-03T13:50:07.543Z,14.01
2019-05-03T13:52:39.318Z,14.04
2019-05-03T13:55:10.979Z,14.28
2019-05-03T13:57:42.293Z,14.51
2019-05-03T14:00:15.223Z,14.61
2019-05-03T14:02:46.745Z,14.51
2019-05-03T14:05:19.178Z,14.65
2019-05-03T14:07:50.626Z,14.15
2019-05-03T14:10:24.985Z,14.01
2019-05-03T14:12:56.639Z,13.83
2019-05-03T14:15:28.197Z,13.69
2019-05-03T14:17:59.478Z,13.89
2019-05-03T14:20:43.333Z,13.95
2019-05-03T14:23:15.360Z,14.09
2019-05-03T14:25:47.014Z,14.15
2019-05-03T14:28:18.643Z,14.19
2019-05-03T14:30:50.067Z,14.39
2019-05-03T14:33:21.523Z,14.75
2019-05-03T14:35:54.714Z,14.76
2019-05-03T14:38:25.774Z,14.66
2019-05-03T14:40:57.025Z,14.61
2019-05-03T14:43:28.697Z,14.39
2019-05-03T14:46:00.896Z,14.20
2019-05-03T14:48:32.480Z,13.88
2019-05-03T14:51:05.462Z,13.80
2019-05-03T14:53:37.618Z,13.38
2019-05-03T14:56:20.324Z,13.21
2019-05-03T14:59:19.927Z,13.23
2019-05-03T15:02:16.415Z,13.32
2019-05-03T15:04:48.285Z,13.28
2019-05-03T15:07:19.718Z,13.30
2019-05-03T15:09:51.001Z,13.39
2019-05-03T15:12:22.466Z,13.47
2019-05-03T15:14:54.606Z,13.51
2019-05-03T15:17:26.111Z,13.57
2019-05-03T15:19:57.548Z,13.71
2019-05-03T15:22:29.872Z,13.73
2019-05-03T15:25:01.961Z,13.80
2019-05-03T15:27:39.145Z,13.60
2019-05-03T15:30:12.583Z,13.63
2019-05-03T15:32:56.587Z,13.75
2019-05-03T15:35:26.670Z,13.45
2019-05-03T15:37:58.419Z,13.58
2019-05-03T15:40:31.432Z,13.46
2019-05-03T15:43:10.945Z,13.28
2019-05-03T15:45:58.784Z,13.46
2019-05-03T15:48:35.136Z,13.40
2019-05-03T15:51:07.141Z,13.42
2019-05-03T15:53:41.671Z,13.60
2019-05-03T15:56:14.711Z,13.72
2019-05-03T15:58:46.970Z,13.41
2019-05-03T16:01:18.582Z,13.35
2019-05-03T16:03:50.068Z,13.37
2019-05-03T16:06:22.170Z,13.46
2019-05-03T16:08:55.289Z,13.49
2019-05-03T16:11:27.210Z,13.57
2019-05-03T16:13:58.806Z,13.64
2019-05-03T16:16:30.838Z,13.66
2019-05-03T16:19:02.558Z,13.67
2019-05-03T16:21:37.178Z,13.66
2019-05-03T16:24:08.622Z,13.73
2019-05-03T16:26:59.102Z,13.66
2019-05-03T16:29:30.660Z,13.59
2019-05-03T16:32:01.974Z,13.38
2019-05-03T16:34:35.050Z,13.33
2019-05-03T16:37:07.661Z,13.35
2019-05-03T16:39:39.239Z,13.31
2019-05-03T16:42:15.465Z,13.25
2019-05-03T16:44:47.158Z,13.26
2019-05-03T16:47:18.556Z,13.22
2019-05-03T16:49:50.045Z,13.11
2019-05-03T16:52:21.594Z,12.96
2019-05-03T16:54:54.765Z,12.83
2019-05-03T16:57:26.263Z,12.79
2019-05-03T16:59:57.633Z,12.75
2019-05-03T17:02:29.206Z,12.77
2019-05-03T17:05:07.613Z,12.76
2019-05-03T17:08:01.120Z,12.67
2019-05-03T17:10:38.753Z,12.65
2019-05-03T17:13:25.229Z,12.58
2019-05-03T17:15:56.987Z,12.41
2019-05-03T17:18:29.096Z,12.29
2019-05-03T17:21:01.489Z,12.35
2019-05-03T17:23:35.146Z,12.31
2019-05-03T17:26:06.629Z,12.34
2019-05-03T17:28:38.300Z,12.40
2019-05-03T17:31:09.569Z,12.33
2019-05-03T17:33:50.604Z,12.29
2019-05-03T17:36:14.383Z,12.26
2019-05-03T17:38:47.587Z,12.28
2019-05-03T17:41:47.347Z,12.32
2019-05-03T17:44:23.591Z,12.33
2019-05-03T17:46:55.067Z,12.26
2019-05-03T17:49:26.433Z,12.12
2019-05-03T17:52:22.759Z,12.01
2019-05-03T17:55:12.102Z,11.87
2019-05-03T17:58:08.359Z,11.78
2019-05-03T18:01:16.690Z,11.79
2019-05-03T18:03:50.741Z,11.76
2019-05-03T18:06:28.802Z,11.66
2019-05-03T18:09:06.981Z,11.55
2019-05-03T18:11:41.454Z,11.42
2019-05-03T18:14:14.655Z,11.21
2019-05-03T18:16:46.477Z,11.05
2019-05-03T18:19:18.852Z,10.93
2019-05-03T18:21:50.120Z,10.91
2019-05-03T18:24:21.595Z,10.86
2019-05-03T18:26:53.069Z,10.79
2019-05-03T18:29:25.228Z,10.80
2019-05-03T18:31:56.742Z,10.82
2019-05-03T18:34:28.198Z,10.80
2019-05-03T18:36:59.667Z,10.73
2019-05-03T18:39:30.916Z,10.63
2019-05-03T18:42:04.920Z,10.57
2019-05-03T18:44:42.058Z,10.43
2019-05-03T18:47:17.236Z,10.43
2019-05-03T18:49:49.348Z,10.37
2019-05-03T18:52:20.910Z,10.20
2019-05-03T18:54:52.215Z,10.12
2019-05-03T18:57:25.425Z,10.05
2019-05-03T18:59:56.902Z,10.00
2019-05-03T19:02:28.336Z,9.88
2019-05-03T19:04:59.546Z,9.87
2019-05-03T19:07:47.593Z,9.79
2019-05-03T19:10:31.471Z,9.77
2019-05-03T19:13:09.899Z,9.80
2019-05-03T19:15:41.489Z,9.78
2019-05-03T19:18:21.672Z,9.78
2019-05-03T19:20:54.982Z,9.81
2019-05-03T19:23:26.131Z,9.81
2019-05-03T19:25:57.708Z,9.87
2019-05-03T19:28:29.063Z,9.90
2019-05-03T19:31:01.358Z,9.94
2019-05-03T19:33:32.711Z,9.87
2019-05-03T19:36:04.519Z,9.80
2019-05-03T19:38:35.934Z,9.68
2019-05-03T19:41:07.468Z,9.66
2019-05-03T19:43:38.851Z,9.64
2019-05-03T19:46:10.125Z,9.60
2019-05-03T19:48:41.454Z,9.57
2019-05-03T19:51:12.806Z,9.51
2019-05-03T19:53:52.055Z,9.48
2019-05-03T19:56:25.480Z,9.47
2019-05-03T19:59:01.569Z,9.44
2019-05-03T20:01:45.257Z,9.40
2019-05-03T20:04:41.492Z,9.37
2019-05-03T20:07:34.543Z,9.32
2019-05-03T20:10:06.714Z,9.23
2019-05-03T20:12:38.006Z,9.14
2019-05-03T20:15:09.756Z,9.08
2019-05-03T20:17:53.995Z,8.98
2019-05-03T20:20:15.504Z,8.92
2019-05-03T20:22:47.683Z,8.90
2019-05-03T20:25:20.422Z,8.86
2019-05-03T20:27:51.963Z,8.82
2019-05-03T20:30:25.382Z,8.78
2019-05-03T20:32:56.888Z,8.72
2019-05-03T20:35:28.266Z,8.69
2019-05-03T20:37:59.677Z,8.66
2019-05-03T20:40:31.106Z,8.61
2019-05-03T20:43:10.047Z,8.59
2019-05-03T20:46:15.976Z,8.56
2019-05-03T20:48:50.275Z,8.48
2019-05-03T20:51:21.914Z,8.39
2019-05-03T20:53:55.269Z,8.31
2019-05-03T20:56:27.312Z,8.27
2019-05-03T20:58:59.563Z,8.21
2019-05-03T21:01:32.093Z,8.17
2019-05-03T21:04:04.796Z,8.14
2019-05-03T21:06:37.168Z,8.12
2019-05-03T21:09:09.826Z,8.06
2019-05-03T21:11:44.821Z,8.00
2019-05-03T21:14:16.689Z,8.01
2019-05-03T21:17:11.176Z,7.97
2019-05-03T21:19:50.753Z,8.02
2019-05-03T21:22:30.140Z,8.04
2019-05-03T21:25:25.317Z,8.03
2019-05-03T21:27:56.893Z,7.91
2019-05-03T21:30:28.351Z,7.73
2019-05-03T21:32:59.617Z,7.60
2019-05-03T21:35:39.390Z,7.50
2019-05-03T21:38:04.725Z,7.41
2019-05-03T21:40:36.329Z,7.37
2019-05-03T21:43:07.735Z,7.37
2019-05-03T21:45:45.361Z,7.36
2019-05-03T21:48:25.356Z,7.37
2019-05-03T21:50:57.122Z,7.38
2019-05-03T21:53:28.421Z,7.48
2019-05-03T21:55:59.702Z,7.51
2019-05-03T21:58:31.282Z,7.53
2019-05-03T22:01:07.091Z,7.55
2019-05-03T22:03:39.518Z,7.51
2019-05-03T22:06:10.870Z,7.51
2019-05-03T22:08:42.324Z,7.46
2019-05-03T22:11:14.877Z,7.40
2019-05-03T22:13:48.124Z,7.38
2019-05-03T22:16:37.358Z,7.37
2019-05-03T22:19:08.979Z,7.33
2019-05-03T22:21:46.602Z,7.32
2019-05-03T22:24:42.150Z,7.26
2019-05-03T22:27:17.650Z,7.25
2019-05-03T22:29:49.806Z,7.20
2019-05-03T22:32:21.380Z,7.15
2019-05-03T22:34:52.795Z,7.18
2019-05-03T22:37:25.283Z,7.20
2019-05-03T22:39:57.606Z,7.21
2019-05-03T22:42:28.981Z,7.16
2019-05-03T22:45:00.348Z,7.15
2019-05-03T22:47:31.804Z,7.09
2019-05-03T22:50:05.282Z,7.04
2019-05-03T22:52:36.261Z,7.01
2019-05-03T22:55:08.063Z,6.87
2019-05-03T22:57:39.341Z,6.78
2019-05-03T23:00:11.877Z,6.67
2019-05-03T23:02:45.549Z,6.56
2019-05-03T23:05:17.146Z,6.45
2019-05-03T23:07:48.455Z,6.34
2019-05-03T23:10:20.263Z,6.27
2019-05-03T23:12:51.620Z,6.13
2019-05-03T23:15:24.414Z,6.05
2019-05-03T23:17:55.919Z,6.00
2019-05-03T23:20:42.617Z,6.01
2019-05-03T23:23:32.889Z,6.03
2019-05-03T23:26:04.576Z,6.07
2019-05-03T23:28:35.956Z,6.12
2019-05-03T23:31:07.408Z,6.15
2019-05-03T23:33:38.771Z,6.18
2019-05-03T23:36:10.598Z,6.25
2019-05-03T23:38:42.313Z,6.21
2019-05-03T23:41:15.285Z,6.23
2019-05-03T23:43:46.791Z,6.21
2019-05-03T23:46:20.623Z,6.29
2019-05-03T23:48:51.946Z,6.31
2019-05-03T23:51:41.253Z,6.38
2019-05-03T23:54:14.825Z,6.41
2019-05-03T23:56:46.013Z,6.46
2019-05-03T23:59:17.790Z,6.48
